sensor_id;sensor_type;location;lat;lon;timestamp;P1;durP1;ratioP1;P2;durP2;ratioP2
42420;SDS011;28063;48.140;11.588;2023-11-22T00:01:05;9.45;;;5.78;;
42420;SDS011;28063;48.140;11.588;2023-11-22T00:03:31;9.10;;;5.75;;
42420;SDS011;28063;48.140;11.588;2023-11-22T00:05:57;7.13;;;5.20;;
42420;SDS011;28063;48.140;11.588;2023-11-22T00:08:24;7.18;;;5.53;;
42420;SDS011;28063;48.140;11.588;2023-11-22T00:10:50;7.55;;;4.60;;
42420;SDS011;28063;48.140;11.588;2023-11-22T00:13:16;6.40;;;4.30;;
42420;SDS011;28063;48.140;11.588;2023-11-22T00:15:42;8.15;;;3.97;;
42420;SDS011;28063;48.140;11.588;2023-11-22T00:18:08;5.65;;;3.97;;
42420;SDS011;28063;48.140;11.588;2023-11-22T00:20:34;4.32;;;3.53;;
42420;SDS011;28063;48.140;11.588;2023-11-22T00:23:00;7.28;;;4.43;;
42420;SDS011;28063;48.140;11.588;2023-11-22T00:25:28;6.20;;;4.57;;
42420;SDS011;28063;48.140;11.588;2023-11-22T00:27:54;7.97;;;5.10;;
42420;SDS011;28063;48.140;11.588;2023-11-22T00:30:20;7.18;;;4.88;;
42420;SDS011;28063;48.140;11.588;2023-11-22T00:32:48;7.65;;;5.13;;
42420;SDS011;28063;48.140;11.588;2023-11-22T00:35:14;6.95;;;5.35;;
42420;SDS011;28063;48.140;11.588;2023-11-22T00:37:40;7.72;;;5.40;;
42420;SDS011;28063;48.140;11.588;2023-11-22T00:40:06;8.23;;;5.65;;
42420;SDS011;28063;48.140;11.588;2023-11-22T00:42:36;9.15;;;6.13;;
42420;SDS011;28063;48.140;11.588;2023-11-22T00:45:04;9.75;;;6.30;;
42420;SDS011;28063;48.140;11.588;2023-11-22T00:47:31;7.38;;;5.65;;
42420;SDS011;28063;48.140;11.588;2023-11-22T00:49:57;7.78;;;5.68;;
42420;SDS011;28063;48.140;11.588;2023-11-22T00:52:24;7.00;;;5.30;;
42420;SDS011;28063;48.140;11.588;2023-11-22T00:54:50;10.90;;;6.85;;
42420;SDS011;28063;48.140;11.588;2023-11-22T00:57:16;7.03;;;6.10;;
42420;SDS011;28063;48.140;11.588;2023-11-22T00:59:42;8.02;;;5.97;;
42420;SDS011;28063;48.140;11.588;2023-11-22T01:02:08;7.47;;;5.57;;
42420;SDS011;28063;48.140;11.588;2023-11-22T01:04:34;9.60;;;5.95;;
42420;SDS011;28063;48.140;11.588;2023-11-22T01:07:02;6.78;;;5.70;;
42420;SDS011;28063;48.140;11.588;2023-11-22T01:09:29;6.97;;;5.85;;
42420;SDS011;28063;48.140;11.588;2023-11-22T01:11:57;6.82;;;5.00;;
42420;SDS011;28063;48.140;11.588;2023-11-22T01:14:23;7.82;;;5.07;;
42420;SDS011;28063;48.140;11.588;2023-11-22T01:16:49;7.35;;;5.43;;
42420;SDS011;28063;48.140;11.588;2023-11-22T01:19:15;6.03;;;4.72;;
42420;SDS011;28063;48.140;11.588;2023-11-22T01:21:41;7.35;;;5.78;;
42420;SDS011;28063;48.140;11.588;2023-11-22T01:24:07;8.32;;;5.03;;
42420;SDS011;28063;48.140;11.588;2023-11-22T01:26:33;10.57;;;6.05;;
42420;SDS011;28063;48.140;11.588;2023-11-22T01:28:59;8.48;;;5.80;;
42420;SDS011;28063;48.140;11.588;2023-11-22T01:31:27;8.68;;;5.93;;
42420;SDS011;28063;48.140;11.588;2023-11-22T01:33:53;7.35;;;4.90;;
42420;SDS011;28063;48.140;11.588;2023-11-22T01:36:20;7.05;;;4.78;;
42420;SDS011;28063;48.140;11.588;2023-11-22T01:38:46;8.10;;;4.78;;
42420;SDS011;28063;48.140;11.588;2023-11-22T01:41:13;4.40;;;3.85;;
42420;SDS011;28063;48.140;11.588;2023-11-22T01:43:39;7.07;;;4.72;;
42420;SDS011;28063;48.140;11.588;2023-11-22T01:46:07;5.07;;;4.30;;
42420;SDS011;28063;48.140;11.588;2023-11-22T01:48:33;6.43;;;4.45;;
42420;SDS011;28063;48.140;11.588;2023-11-22T01:51:01;4.80;;;3.97;;
42420;SDS011;28063;48.140;11.588;2023-11-22T01:53:27;6.28;;;4.55;;
42420;SDS011;28063;48.140;11.588;2023-11-22T01:55:53;6.57;;;4.35;;
42420;SDS011;28063;48.140;11.588;2023-11-22T01:58:20;5.13;;;4.30;;
42420;SDS011;28063;48.140;11.588;2023-11-22T02:00:50;7.47;;;5.43;;
42420;SDS011;28063;48.140;11.588;2023-11-22T02:03:17;8.13;;;5.32;;
42420;SDS011;28063;48.140;11.588;2023-11-22T02:05:44;8.35;;;5.82;;
42420;SDS011;28063;48.140;11.588;2023-11-22T02:08:10;8.75;;;5.95;;
42420;SDS011;28063;48.140;11.588;2023-11-22T02:10:36;7.22;;;4.68;;
42420;SDS011;28063;48.140;11.588;2023-11-22T02:13:03;5.82;;;3.67;;
42420;SDS011;28063;48.140;11.588;2023-11-22T02:15:35;8.00;;;4.38;;
42420;SDS011;28063;48.140;11.588;2023-11-22T02:18:01;5.88;;;4.78;;
42420;SDS011;28063;48.140;11.588;2023-11-22T02:20:28;6.25;;;4.28;;
42420;SDS011;28063;48.140;11.588;2023-11-22T02:22:54;5.43;;;4.10;;
42420;SDS011;28063;48.140;11.588;2023-11-22T02:25:20;4.72;;;4.07;;
42420;SDS011;28063;48.140;11.588;2023-11-22T02:27:46;4.20;;;3.33;;
42420;SDS011;28063;48.140;11.588;2023-11-22T02:30:13;3.28;;;2.78;;
42420;SDS011;28063;48.140;11.588;2023-11-22T02:32:39;2.85;;;2.35;;
42420;SDS011;28063;48.140;11.588;2023-11-22T02:35:05;2.28;;;1.95;;
42420;SDS011;28063;48.140;11.588;2023-11-22T02:37:33;2.70;;;2.10;;
42420;SDS011;28063;48.140;11.588;2023-11-22T02:40:19;1.90;;;1.80;;
42420;SDS011;28063;48.140;11.588;2023-11-22T02:42:48;1.63;;;1.52;;
42420;SDS011;28063;48.140;11.588;2023-11-22T02:45:18;1.83;;;1.58;;
42420;SDS011;28063;48.140;11.588;2023-11-22T02:47:44;2.17;;;1.75;;
42420;SDS011;28063;48.140;11.588;2023-11-22T02:50:14;3.17;;;2.03;;
42420;SDS011;28063;48.140;11.588;2023-11-22T02:52:40;4.55;;;2.13;;
42420;SDS011;28063;48.140;11.588;2023-11-22T02:55:07;3.10;;;2.22;;
42420;SDS011;28063;48.140;11.588;2023-11-22T02:57:34;2.22;;;1.83;;
42420;SDS011;28063;48.140;11.588;2023-11-22T03:00:01;3.08;;;2.20;;
42420;SDS011;28063;48.140;11.588;2023-11-22T03:02:29;3.42;;;2.38;;
42420;SDS011;28063;48.140;11.588;2023-11-22T03:04:55;2.70;;;2.15;;
42420;SDS011;28063;48.140;11.588;2023-11-22T03:07:21;3.05;;;2.42;;
42420;SDS011;28063;48.140;11.588;2023-11-22T03:09:47;2.78;;;2.30;;
42420;SDS011;28063;48.140;11.588;2023-11-22T03:12:13;3.05;;;2.60;;
42420;SDS011;28063;48.140;11.588;2023-11-22T03:14:39;2.72;;;2.13;;
42420;SDS011;28063;48.140;11.588;2023-11-22T03:17:06;2.80;;;2.22;;
42420;SDS011;28063;48.140;11.588;2023-11-22T03:19:33;2.75;;;2.10;;
42420;SDS011;28063;48.140;11.588;2023-11-22T03:22:02;2.53;;;2.10;;
42420;SDS011;28063;48.140;11.588;2023-11-22T03:24:29;2.67;;;2.22;;
42420;SDS011;28063;48.140;11.588;2023-11-22T03:26:55;2.30;;;1.77;;
42420;SDS011;28063;48.140;11.588;2023-11-22T03:29:24;3.78;;;2.20;;
42420;SDS011;28063;48.140;11.588;2023-11-22T03:31:50;2.25;;;1.88;;
42420;SDS011;28063;48.140;11.588;2023-11-22T03:34:16;2.30;;;2.10;;
42420;SDS011;28063;48.140;11.588;2023-11-22T03:36:42;2.40;;;2.13;;
42420;SDS011;28063;48.140;11.588;2023-11-22T03:39:09;2.38;;;2.05;;
42420;SDS011;28063;48.140;11.588;2023-11-22T03:41:35;2.42;;;2.22;;
42420;SDS011;28063;48.140;11.588;2023-11-22T03:44:02;2.20;;;2.00;;
42420;SDS011;28063;48.140;11.588;2023-11-22T03:46:29;2.55;;;2.05;;
42420;SDS011;28063;48.140;11.588;2023-11-22T03:48:55;2.80;;;2.30;;
42420;SDS011;28063;48.140;11.588;2023-11-22T03:51:21;2.63;;;2.20;;
42420;SDS011;28063;48.140;11.588;2023-11-22T03:53:47;2.83;;;2.17;;
42420;SDS011;28063;48.140;11.588;2023-11-22T03:56:13;2.53;;;2.20;;
42420;SDS011;28063;48.140;11.588;2023-11-22T03:58:39;2.80;;;2.38;;
42420;SDS011;28063;48.140;11.588;2023-11-22T04:01:06;2.05;;;1.75;;
42420;SDS011;28063;48.140;11.588;2023-11-22T04:03:31;2.38;;;1.92;;
42420;SDS011;28063;48.140;11.588;2023-11-22T04:05:57;3.08;;;1.77;;
42420;SDS011;28063;48.140;11.588;2023-11-22T04:08:24;4.65;;;2.38;;
42420;SDS011;28063;48.140;11.588;2023-11-22T04:10:50;3.22;;;2.20;;
42420;SDS011;28063;48.140;11.588;2023-11-22T04:13:17;3.38;;;2.20;;
42420;SDS011;28063;48.140;11.588;2023-11-22T04:15:43;2.53;;;2.25;;
42420;SDS011;28063;48.140;11.588;2023-11-22T04:18:09;2.60;;;2.15;;
42420;SDS011;28063;48.140;11.588;2023-11-22T04:20:35;3.30;;;2.20;;
42420;SDS011;28063;48.140;11.588;2023-11-22T04:23:01;2.55;;;2.17;;
42420;SDS011;28063;48.140;11.588;2023-11-22T04:25:27;2.63;;;2.03;;
42420;SDS011;28063;48.140;11.588;2023-11-22T04:27:54;2.88;;;1.80;;
42420;SDS011;28063;48.140;11.588;2023-11-22T04:30:21;2.90;;;1.90;;
42420;SDS011;28063;48.140;11.588;2023-11-22T04:32:47;2.60;;;1.80;;
42420;SDS011;28063;48.140;11.588;2023-11-22T04:35:13;2.33;;;1.73;;
42420;SDS011;28063;48.140;11.588;2023-11-22T04:37:39;2.88;;;2.08;;
42420;SDS011;28063;48.140;11.588;2023-11-22T04:40:05;2.17;;;1.70;;
42420;SDS011;28063;48.140;11.588;2023-11-22T04:42:34;2.40;;;2.17;;
42420;SDS011;28063;48.140;11.588;2023-11-22T04:45:01;2.35;;;1.90;;
42420;SDS011;28063;48.140;11.588;2023-11-22T04:47:28;4.07;;;2.47;;
42420;SDS011;28063;48.140;11.588;2023-11-22T04:49:54;2.63;;;2.08;;
42420;SDS011;28063;48.140;11.588;2023-11-22T04:52:20;2.63;;;1.90;;
42420;SDS011;28063;48.140;11.588;2023-11-22T04:54:46;2.65;;;2.42;;
42420;SDS011;28063;48.140;11.588;2023-11-22T04:57:12;2.88;;;2.05;;
42420;SDS011;28063;48.140;11.588;2023-11-22T04:59:38;2.80;;;2.00;;
42420;SDS011;28063;48.140;11.588;2023-11-22T05:02:05;2.50;;;2.10;;
42420;SDS011;28063;48.140;11.588;2023-11-22T05:04:32;2.95;;;2.38;;
42420;SDS011;28063;48.140;11.588;2023-11-22T05:06:58;1.92;;;1.73;;
42420;SDS011;28063;48.140;11.588;2023-11-22T05:09:24;1.75;;;1.65;;
42420;SDS011;28063;48.140;11.588;2023-11-22T05:11:50;2.80;;;1.85;;
42420;SDS011;28063;48.140;11.588;2023-11-22T05:14:17;2.00;;;1.48;;
42420;SDS011;28063;48.140;11.588;2023-11-22T05:16:43;2.15;;;1.95;;
42420;SDS011;28063;48.140;11.588;2023-11-22T05:19:09;2.05;;;1.80;;
42420;SDS011;28063;48.140;11.588;2023-11-22T05:21:35;1.83;;;1.60;;
42420;SDS011;28063;48.140;11.588;2023-11-22T05:24:01;1.90;;;1.70;;
42420;SDS011;28063;48.140;11.588;2023-11-22T05:26:27;2.92;;;1.88;;
42420;SDS011;28063;48.140;11.588;2023-11-22T05:28:53;1.58;;;1.35;;
42420;SDS011;28063;48.140;11.588;2023-11-22T05:31:20;2.10;;;1.58;;
42420;SDS011;28063;48.140;11.588;2023-11-22T05:33:46;2.35;;;1.83;;
42420;SDS011;28063;48.140;11.588;2023-11-22T05:36:12;2.15;;;1.85;;
42420;SDS011;28063;48.140;11.588;2023-11-22T05:38:39;2.47;;;1.80;;
42420;SDS011;28063;48.140;11.588;2023-11-22T05:41:05;1.90;;;1.70;;
42420;SDS011;28063;48.140;11.588;2023-11-22T05:43:31;2.63;;;1.60;;
42420;SDS011;28063;48.140;11.588;2023-11-22T05:46:00;2.38;;;2.05;;
42420;SDS011;28063;48.140;11.588;2023-11-22T05:48:26;2.63;;;1.80;;
42420;SDS011;28063;48.140;11.588;2023-11-22T05:50:52;1.92;;;1.77;;
42420;SDS011;28063;48.140;11.588;2023-11-22T05:53:18;2.30;;;1.75;;
42420;SDS011;28063;48.140;11.588;2023-11-22T05:55:48;2.75;;;1.90;;
42420;SDS011;28063;48.140;11.588;2023-11-22T05:58:14;2.38;;;1.73;;
42420;SDS011;28063;48.140;11.588;2023-11-22T06:00:44;1.85;;;1.73;;
42420;SDS011;28063;48.140;11.588;2023-11-22T06:03:13;2.03;;;1.60;;
42420;SDS011;28063;48.140;11.588;2023-11-22T06:05:39;2.55;;;1.58;;
42420;SDS011;28063;48.140;11.588;2023-11-22T06:08:05;2.40;;;1.75;;
42420;SDS011;28063;48.140;11.588;2023-11-22T06:10:32;1.63;;;1.40;;
42420;SDS011;28063;48.140;11.588;2023-11-22T06:12:58;1.92;;;1.73;;
42420;SDS011;28063;48.140;11.588;2023-11-22T06:15:24;2.90;;;1.88;;
42420;SDS011;28063;48.140;11.588;2023-11-22T06:17:50;2.65;;;2.03;;
42420;SDS011;28063;48.140;11.588;2023-11-22T06:20:17;1.80;;;1.67;;
42420;SDS011;28063;48.140;11.588;2023-11-22T06:22:43;1.70;;;1.60;;
42420;SDS011;28063;48.140;11.588;2023-11-22T06:25:09;3.20;;;2.08;;
42420;SDS011;28063;48.140;11.588;2023-11-22T06:27:36;2.53;;;1.80;;
42420;SDS011;28063;48.140;11.588;2023-11-22T06:30:02;2.40;;;2.20;;
42420;SDS011;28063;48.140;11.588;2023-11-22T06:32:28;2.60;;;1.85;;
42420;SDS011;28063;48.140;11.588;2023-11-22T06:34:54;4.82;;;3.10;;
42420;SDS011;28063;48.140;11.588;2023-11-22T06:37:20;3.13;;;2.22;;
42420;SDS011;28063;48.140;11.588;2023-11-22T06:39:47;3.25;;;2.28;;
42420;SDS011;28063;48.140;11.588;2023-11-22T06:42:13;2.60;;;2.20;;
42420;SDS011;28063;48.140;11.588;2023-11-22T06:44:39;2.45;;;2.20;;
42420;SDS011;28063;48.140;11.588;2023-11-22T06:47:05;2.28;;;1.92;;
42420;SDS011;28063;48.140;11.588;2023-11-22T06:49:32;5.28;;;2.50;;
42420;SDS011;28063;48.140;11.588;2023-11-22T06:51:58;2.83;;;2.42;;
42420;SDS011;28063;48.140;11.588;2023-11-22T06:54:25;3.42;;;2.38;;
42420;SDS011;28063;48.140;11.588;2023-11-22T06:56:51;4.43;;;2.75;;
42420;SDS011;28063;48.140;11.588;2023-11-22T06:59:18;3.22;;;2.67;;
42420;SDS011;28063;48.140;11.588;2023-11-22T07:01:44;3.33;;;2.67;;
42420;SDS011;28063;48.140;11.588;2023-11-22T07:04:10;3.78;;;3.08;;
42420;SDS011;28063;48.140;11.588;2023-11-22T07:06:36;4.75;;;2.53;;
42420;SDS011;28063;48.140;11.588;2023-11-22T07:09:06;2.90;;;2.58;;
42420;SDS011;28063;48.140;11.588;2023-11-22T07:11:35;6.00;;;2.70;;
42420;SDS011;28063;48.140;11.588;2023-11-22T07:14:02;3.10;;;2.80;;
42420;SDS011;28063;48.140;11.588;2023-11-22T07:16:32;4.75;;;3.22;;
42420;SDS011;28063;48.140;11.588;2023-11-22T07:18:59;4.45;;;3.28;;
42420;SDS011;28063;48.140;11.588;2023-11-22T07:21:27;4.60;;;3.00;;
42420;SDS011;28063;48.140;11.588;2023-11-22T07:23:56;5.78;;;3.63;;
42420;SDS011;28063;48.140;11.588;2023-11-22T07:26:25;5.90;;;3.58;;
42420;SDS011;28063;48.140;11.588;2023-11-22T07:28:55;5.30;;;3.30;;
42420;SDS011;28063;48.140;11.588;2023-11-22T07:31:21;4.35;;;3.00;;
42420;SDS011;28063;48.140;11.588;2023-11-22T07:33:47;3.25;;;2.47;;
42420;SDS011;28063;48.140;11.588;2023-11-22T07:36:14;3.50;;;2.65;;
42420;SDS011;28063;48.140;11.588;2023-11-22T07:38:40;3.85;;;2.90;;
42420;SDS011;28063;48.140;11.588;2023-11-22T07:41:08;3.92;;;2.45;;
42420;SDS011;28063;48.140;11.588;2023-11-22T07:43:34;4.07;;;2.97;;
42420;SDS011;28063;48.140;11.588;2023-11-22T07:46:09;3.30;;;2.78;;
42420;SDS011;28063;48.140;11.588;2023-11-22T07:48:43;3.20;;;2.58;;
42420;SDS011;28063;48.140;11.588;2023-11-22T07:51:12;4.45;;;3.28;;
42420;SDS011;28063;48.140;11.588;2023-11-22T07:53:41;4.03;;;3.33;;
42420;SDS011;28063;48.140;11.588;2023-11-22T07:56:08;6.70;;;3.53;;
42420;SDS011;28063;48.140;11.588;2023-11-22T07:58:36;4.78;;;3.67;;
42420;SDS011;28063;48.140;11.588;2023-11-22T08:01:02;5.00;;;3.10;;
42420;SDS011;28063;48.140;11.588;2023-11-22T08:03:31;4.25;;;2.90;;
42420;SDS011;28063;48.140;11.588;2023-11-22T08:05:57;2.92;;;2.60;;
42420;SDS011;28063;48.140;11.588;2023-11-22T08:08:23;3.83;;;3.03;;
42420;SDS011;28063;48.140;11.588;2023-11-22T08:10:51;3.28;;;2.83;;
42420;SDS011;28063;48.140;11.588;2023-11-22T08:13:19;8.23;;;4.22;;
42420;SDS011;28063;48.140;11.588;2023-11-22T08:15:47;7.05;;;3.72;;
42420;SDS011;28063;48.140;11.588;2023-11-22T08:18:13;4.97;;;3.72;;
42420;SDS011;28063;48.140;11.588;2023-11-22T08:20:41;4.07;;;3.65;;
42420;SDS011;28063;48.140;11.588;2023-11-22T08:23:08;5.07;;;3.58;;
42420;SDS011;28063;48.140;11.588;2023-11-22T08:25:35;6.13;;;4.35;;
42420;SDS011;28063;48.140;11.588;2023-11-22T08:28:03;7.13;;;4.18;;
42420;SDS011;28063;48.140;11.588;2023-11-22T08:30:33;7.53;;;3.85;;
42420;SDS011;28063;48.140;11.588;2023-11-22T08:33:00;5.97;;;3.72;;
42420;SDS011;28063;48.140;11.588;2023-11-22T08:35:27;6.00;;;4.03;;
42420;SDS011;28063;48.140;11.588;2023-11-22T08:37:53;6.47;;;3.42;;
42420;SDS011;28063;48.140;11.588;2023-11-22T08:40:22;6.28;;;3.90;;
42420;SDS011;28063;48.140;11.588;2023-11-22T08:42:48;5.80;;;4.40;;
42420;SDS011;28063;48.140;11.588;2023-11-22T08:45:15;5.03;;;3.50;;
42420;SDS011;28063;48.140;11.588;2023-11-22T08:47:41;4.07;;;3.03;;
42420;SDS011;28063;48.140;11.588;2023-11-22T08:50:08;4.25;;;3.47;;
42420;SDS011;28063;48.140;11.588;2023-11-22T08:52:38;4.63;;;3.33;;
42420;SDS011;28063;48.140;11.588;2023-11-22T08:55:05;4.10;;;3.63;;
42420;SDS011;28063;48.140;11.588;2023-11-22T08:57:33;5.32;;;3.40;;
42420;SDS011;28063;48.140;11.588;2023-11-22T09:00:00;4.00;;;3.17;;
42420;SDS011;28063;48.140;11.588;2023-11-22T09:02:31;3.97;;;3.25;;
42420;SDS011;28063;48.140;11.588;2023-11-22T09:04:58;3.97;;;3.15;;
42420;SDS011;28063;48.140;11.588;2023-11-22T09:07:24;4.40;;;3.17;;
42420;SDS011;28063;48.140;11.588;2023-11-22T09:09:51;6.32;;;3.78;;
42420;SDS011;28063;48.140;11.588;2023-11-22T09:12:17;5.22;;;3.45;;
42420;SDS011;28063;48.140;11.588;2023-11-22T09:14:44;5.75;;;3.10;;
42420;SDS011;28063;48.140;11.588;2023-11-22T09:17:12;4.15;;;3.35;;
42420;SDS011;28063;48.140;11.588;2023-11-22T09:19:38;9.10;;;3.92;;
42420;SDS011;28063;48.140;11.588;2023-11-22T09:22:05;5.93;;;3.83;;
42420;SDS011;28063;48.140;11.588;2023-11-22T09:24:31;6.00;;;3.90;;
42420;SDS011;28063;48.140;11.588;2023-11-22T09:26:58;3.83;;;3.42;;
42420;SDS011;28063;48.140;11.588;2023-11-22T09:29:26;3.90;;;3.30;;
42420;SDS011;28063;48.140;11.588;2023-11-22T09:31:52;4.13;;;3.17;;
42420;SDS011;28063;48.140;11.588;2023-11-22T09:34:18;4.45;;;2.88;;
42420;SDS011;28063;48.140;11.588;2023-11-22T09:36:45;4.65;;;3.25;;
42420;SDS011;28063;48.140;11.588;2023-11-22T09:39:12;4.13;;;3.70;;
42420;SDS011;28063;48.140;11.588;2023-11-22T09:41:38;5.60;;;3.58;;
42420;SDS011;28063;48.140;11.588;2023-11-22T09:44:04;3.30;;;2.83;;
42420;SDS011;28063;48.140;11.588;2023-11-22T09:46:31;3.50;;;2.80;;
42420;SDS011;28063;48.140;11.588;2023-11-22T09:49:00;2.80;;;2.53;;
42420;SDS011;28063;48.140;11.588;2023-11-22T09:51:28;2.72;;;2.53;;
42420;SDS011;28063;48.140;11.588;2023-11-22T09:54:03;3.78;;;2.78;;
42420;SDS011;28063;48.140;11.588;2023-11-22T09:56:32;3.08;;;2.60;;
42420;SDS011;28063;48.140;11.588;2023-11-22T09:59:01;4.63;;;3.25;;
42420;SDS011;28063;48.140;11.588;2023-11-22T10:01:28;4.13;;;3.40;;
42420;SDS011;28063;48.140;11.588;2023-11-22T10:03:56;3.13;;;2.83;;
42420;SDS011;28063;48.140;11.588;2023-11-22T10:06:22;3.75;;;3.00;;
42420;SDS011;28063;48.140;11.588;2023-11-22T10:08:49;3.05;;;2.75;;
42420;SDS011;28063;48.140;11.588;2023-11-22T10:11:16;2.83;;;2.33;;
42420;SDS011;28063;48.140;11.588;2023-11-22T10:13:43;4.10;;;3.15;;
42420;SDS011;28063;48.140;11.588;2023-11-22T10:16:19;2.92;;;2.33;;
42420;SDS011;28063;48.140;11.588;2023-11-22T10:18:46;3.35;;;2.35;;
42420;SDS011;28063;48.140;11.588;2023-11-22T10:21:20;2.72;;;2.42;;
42420;SDS011;28063;48.140;11.588;2023-11-22T10:23:47;3.55;;;3.22;;
42420;SDS011;28063;48.140;11.588;2023-11-22T10:26:13;4.15;;;2.85;;
42420;SDS011;28063;48.140;11.588;2023-11-22T10:28:42;3.75;;;2.60;;
42420;SDS011;28063;48.140;11.588;2023-11-22T10:31:08;3.08;;;2.60;;
42420;SDS011;28063;48.140;11.588;2023-11-22T10:33:42;2.55;;;2.33;;
42420;SDS011;28063;48.140;11.588;2023-11-22T10:36:08;2.72;;;2.45;;
42420;SDS011;28063;48.140;11.588;2023-11-22T10:38:35;3.13;;;2.55;;
42420;SDS011;28063;48.140;11.588;2023-11-22T10:41:07;3.08;;;2.53;;
42420;SDS011;28063;48.140;11.588;2023-11-22T10:43:35;3.22;;;2.47;;
42420;SDS011;28063;48.140;11.588;2023-11-22T10:46:02;2.35;;;2.15;;
42420;SDS011;28063;48.140;11.588;2023-11-22T10:48:29;3.28;;;2.40;;
42420;SDS011;28063;48.140;11.588;2023-11-22T10:50:56;3.50;;;2.50;;
42420;SDS011;28063;48.140;11.588;2023-11-22T10:53:33;2.75;;;2.40;;
42420;SDS011;28063;48.140;11.588;2023-11-22T10:56:18;2.15;;;1.95;;
42420;SDS011;28063;48.140;11.588;2023-11-22T10:58:52;2.65;;;1.98;;
42420;SDS011;28063;48.140;11.588;2023-11-22T11:01:23;2.88;;;2.10;;
42420;SDS011;28063;48.140;11.588;2023-11-22T11:03:59;2.95;;;2.58;;
42420;SDS011;28063;48.140;11.588;2023-11-22T11:06:31;3.40;;;2.50;;
42420;SDS011;28063;48.140;11.588;2023-11-22T11:08:59;2.55;;;2.35;;
42420;SDS011;28063;48.140;11.588;2023-11-22T11:11:25;3.00;;;2.63;;
42420;SDS011;28063;48.140;11.588;2023-11-22T11:13:53;3.10;;;2.80;;
42420;SDS011;28063;48.140;11.588;2023-11-22T11:16:20;3.55;;;2.25;;
42420;SDS011;28063;48.140;11.588;2023-11-22T11:18:47;3.00;;;2.33;;
42420;SDS011;28063;48.140;11.588;2023-11-22T11:21:13;2.58;;;2.38;;
42420;SDS011;28063;48.140;11.588;2023-11-22T11:23:41;2.38;;;2.03;;
42420;SDS011;28063;48.140;11.588;2023-11-22T11:26:18;3.15;;;2.33;;
42420;SDS011;28063;48.140;11.588;2023-11-22T11:28:47;4.35;;;2.70;;
42420;SDS011;28063;48.140;11.588;2023-11-22T11:31:13;3.35;;;2.95;;
42420;SDS011;28063;48.140;11.588;2023-11-22T11:36:25;4.07;;;2.40;;
42420;SDS011;28063;48.140;11.588;2023-11-22T11:38:52;3.28;;;2.25;;
42420;SDS011;28063;48.140;11.588;2023-11-22T11:41:22;4.03;;;2.60;;
42420;SDS011;28063;48.140;11.588;2023-11-22T11:43:49;2.42;;;2.20;;
42420;SDS011;28063;48.140;11.588;2023-11-22T11:46:15;2.63;;;2.30;;
42420;SDS011;28063;48.140;11.588;2023-11-22T11:48:42;1.92;;;1.83;;
42420;SDS011;28063;48.140;11.588;2023-11-22T11:51:09;2.13;;;1.95;;
42420;SDS011;28063;48.140;11.588;2023-11-22T11:53:37;2.45;;;2.25;;
42420;SDS011;28063;48.140;11.588;2023-11-22T11:56:03;2.42;;;2.08;;
42420;SDS011;28063;48.140;11.588;2023-11-22T11:58:29;2.10;;;1.90;;
42420;SDS011;28063;48.140;11.588;2023-11-22T12:00:55;2.17;;;1.90;;
42420;SDS011;28063;48.140;11.588;2023-11-22T12:03:22;1.95;;;1.75;;
42420;SDS011;28063;48.140;11.588;2023-11-22T12:05:48;2.13;;;1.90;;
42420;SDS011;28063;48.140;11.588;2023-11-22T12:08:15;2.20;;;2.00;;
42420;SDS011;28063;48.140;11.588;2023-11-22T12:10:43;1.65;;;1.55;;
42420;SDS011;28063;48.140;11.588;2023-11-22T12:13:16;1.92;;;1.70;;
42420;SDS011;28063;48.140;11.588;2023-11-22T12:15:42;2.35;;;1.90;;
42420;SDS011;28063;48.140;11.588;2023-11-22T12:18:08;2.65;;;1.60;;
42420;SDS011;28063;48.140;11.588;2023-11-22T12:20:37;1.83;;;1.58;;
42420;SDS011;28063;48.140;11.588;2023-11-22T12:23:03;1.73;;;1.63;;
42420;SDS011;28063;48.140;11.588;2023-11-22T12:25:29;1.98;;;1.63;;
42420;SDS011;28063;48.140;11.588;2023-11-22T12:27:56;2.58;;;2.13;;
42420;SDS011;28063;48.140;11.588;2023-11-22T12:30:35;2.50;;;1.58;;
42420;SDS011;28063;48.140;11.588;2023-11-22T12:33:05;1.98;;;1.73;;
42420;SDS011;28063;48.140;11.588;2023-11-22T12:38:00;1.60;;;1.50;;
42420;SDS011;28063;48.140;11.588;2023-11-22T12:40:30;2.17;;;1.98;;
42420;SDS011;28063;48.140;11.588;2023-11-22T12:42:57;2.75;;;1.92;;
42420;SDS011;28063;48.140;11.588;2023-11-22T12:45:24;4.95;;;2.17;;
42420;SDS011;28063;48.140;11.588;2023-11-22T12:47:51;4.03;;;2.42;;
42420;SDS011;28063;48.140;11.588;2023-11-22T12:50:36;2.47;;;2.10;;
42420;SDS011;28063;48.140;11.588;2023-11-22T12:53:12;2.60;;;2.20;;
42420;SDS011;28063;48.140;11.588;2023-11-22T12:55:45;1.83;;;1.65;;
42420;SDS011;28063;48.140;11.588;2023-11-22T12:58:14;2.85;;;2.15;;
42420;SDS011;28063;48.140;11.588;2023-11-22T13:00:40;1.85;;;1.63;;
42420;SDS011;28063;48.140;11.588;2023-11-22T13:03:07;2.20;;;1.90;;
42420;SDS011;28063;48.140;11.588;2023-11-22T13:05:35;2.38;;;1.92;;
42420;SDS011;28063;48.140;11.588;2023-11-22T13:08:01;2.38;;;1.88;;
42420;SDS011;28063;48.140;11.588;2023-11-22T13:10:28;2.28;;;1.70;;
42420;SDS011;28063;48.140;11.588;2023-11-22T13:12:55;3.03;;;1.98;;
42420;SDS011;28063;48.140;11.588;2023-11-22T13:15:21;3.58;;;2.00;;
42420;SDS011;28063;48.140;11.588;2023-11-22T13:17:48;1.52;;;1.42;;
42420;SDS011;28063;48.140;11.588;2023-11-22T13:20:15;1.67;;;1.58;;
42420;SDS011;28063;48.140;11.588;2023-11-22T13:22:41;2.22;;;1.73;;
42420;SDS011;28063;48.140;11.588;2023-11-22T13:25:08;3.92;;;1.85;;
42420;SDS011;28063;48.140;11.588;2023-11-22T13:27:44;4.45;;;2.10;;
42420;SDS011;28063;48.140;11.588;2023-11-22T13:30:10;2.72;;;2.13;;
42420;SDS011;28063;48.140;11.588;2023-11-22T13:32:36;2.35;;;2.15;;
42420;SDS011;28063;48.140;11.588;2023-11-22T13:35:04;2.03;;;1.83;;
42420;SDS011;28063;48.140;11.588;2023-11-22T13:37:37;2.63;;;2.22;;
42420;SDS011;28063;48.140;11.588;2023-11-22T13:40:07;2.47;;;2.28;;
42420;SDS011;28063;48.140;11.588;2023-11-22T13:42:37;2.35;;;1.73;;
42420;SDS011;28063;48.140;11.588;2023-11-22T13:45:03;1.52;;;1.42;;
42420;SDS011;28063;48.140;11.588;2023-11-22T13:47:30;2.13;;;1.88;;
42420;SDS011;28063;48.140;11.588;2023-11-22T13:49:58;1.63;;;1.52;;
42420;SDS011;28063;48.140;11.588;2023-11-22T13:52:24;2.97;;;2.17;;
42420;SDS011;28063;48.140;11.588;2023-11-22T13:54:50;3.65;;;1.77;;
42420;SDS011;28063;48.140;11.588;2023-11-22T13:57:21;2.10;;;1.90;;
42420;SDS011;28063;48.140;11.588;2023-11-22T13:59:47;5.57;;;2.25;;
42420;SDS011;28063;48.140;11.588;2023-11-22T14:02:13;1.70;;;1.52;;
42420;SDS011;28063;48.140;11.588;2023-11-22T14:04:41;2.33;;;1.90;;
42420;SDS011;28063;48.140;11.588;2023-11-22T14:07:09;2.15;;;1.70;;
42420;SDS011;28063;48.140;11.588;2023-11-22T14:09:36;2.30;;;2.10;;
42420;SDS011;28063;48.140;11.588;2023-11-22T14:12:02;1.75;;;1.48;;
42420;SDS011;28063;48.140;11.588;2023-11-22T14:14:28;1.70;;;1.60;;
42420;SDS011;28063;48.140;11.588;2023-11-22T14:16:55;1.67;;;1.48;;
42420;SDS011;28063;48.140;11.588;2023-11-22T14:19:21;1.73;;;1.42;;
42420;SDS011;28063;48.140;11.588;2023-11-22T14:21:47;1.67;;;1.40;;
42420;SDS011;28063;48.140;11.588;2023-11-22T14:24:13;1.58;;;1.48;;
42420;SDS011;28063;48.140;11.588;2023-11-22T14:26:39;2.53;;;2.28;;
42420;SDS011;28063;48.140;11.588;2023-11-22T14:29:06;2.55;;;2.25;;
42420;SDS011;28063;48.140;11.588;2023-11-22T14:31:32;1.90;;;1.73;;
42420;SDS011;28063;48.140;11.588;2023-11-22T14:33:59;2.47;;;2.28;;
42420;SDS011;28063;48.140;11.588;2023-11-22T14:36:25;2.25;;;2.05;;
42420;SDS011;28063;48.140;11.588;2023-11-22T14:38:51;2.60;;;2.40;;